sensor_id;sensor_type;location;lat;lon;timestamp;temperature;humidity
74511;DHT22;62991;50.040;18.400;2023-10-08T00:00:01;17.20;64.10
74511;DHT22;62991;50.040;18.400;2023-10-08T00:03:21;17.20;64.20
74511;DHT22;62991;50.040;18.400;2023-10-08T00:06:22;17.30;64.10
74511;DHT22;62991;50.040;18.400;2023-10-08T00:09:23;17.30;63.90
74511;DHT22;62991;50.040;18.400;2023-10-08T00:12:23;17.30;63.70
74511;DHT22;62991;50.040;18.400;2023-10-08T00:15:24;17.30;63.50
74511;DHT22;62991;50.040;18.400;2023-10-08T00:18:26;17.40;63.50
74511;DHT22;62991;50.040;18.400;2023-10-08T00:21:29;17.40;63.60
74511;DHT22;62991;50.040;18.400;2023-10-08T00:24:32;17.30;64.10
74511;DHT22;62991;50.040;18.400;2023-10-08T00:27:33;17.30;64.30
74511;DHT22;62991;50.040;18.400;2023-10-08T00:30:40;17.30;64.00
74511;DHT22;62991;50.040;18.400;2023-10-08T00:33:42;17.20;64.20
74511;DHT22;62991;50.040;18.400;2023-10-08T00:36:46;17.20;63.90
74511;DHT22;62991;50.040;18.400;2023-10-08T00:39:48;17.20;63.80
74511;DHT22;62991;50.040;18.400;2023-10-08T00:42:50;17.30;63.70
74511;DHT22;62991;50.040;18.400;2023-10-08T00:45:57;17.30;63.50
74511;DHT22;62991;50.040;18.400;2023-10-08T00:49:00;17.30;63.80
74511;DHT22;62991;50.040;18.400;2023-10-08T00:52:21;17.30;63.80
74511;DHT22;62991;50.040;18.400;2023-10-08T00:55:30;17.30;63.80
74511;DHT22;62991;50.040;18.400;2023-10-08T00:58:34;17.30;63.90
74511;DHT22;62991;50.040;18.400;2023-10-08T01:01:35;17.20;63.80
74511;DHT22;62991;50.040;18.400;2023-10-08T01:04:36;17.20;63.90
74511;DHT22;62991;50.040;18.400;2023-10-08T01:07:40;17.30;63.90
74511;DHT22;62991;50.040;18.400;2023-10-08T01:10:44;17.40;63.70
74511;DHT22;62991;50.040;18.400;2023-10-08T01:13:47;17.40;63.80
74511;DHT22;62991;50.040;18.400;2023-10-08T01:16:49;17.40;63.60
74511;DHT22;62991;50.040;18.400;2023-10-08T01:19:51;17.30;63.90
74511;DHT22;62991;50.040;18.400;2023-10-08T01:22:57;17.30;63.90
74511;DHT22;62991;50.040;18.400;2023-10-08T01:25:58;17.30;64.10
74511;DHT22;62991;50.040;18.400;2023-10-08T01:29:11;17.30;64.20
74511;DHT22;62991;50.040;18.400;2023-10-08T01:32:20;17.30;64.20
74511;DHT22;62991;50.040;18.400;2023-10-08T01:35:23;17.30;64.20
74511;DHT22;62991;50.040;18.400;2023-10-08T01:38:24;17.30;64.20
74511;DHT22;62991;50.040;18.400;2023-10-08T01:41:26;17.30;64.20
74511;DHT22;62991;50.040;18.400;2023-10-08T01:44:33;17.30;64.20
74511;DHT22;62991;50.040;18.400;2023-10-08T01:47:35;17.20;64.40
74511;DHT22;62991;50.040;18.400;2023-10-08T01:50:37;17.30;64.40
74511;DHT22;62991;50.040;18.400;2023-10-08T01:53:38;17.20;64.40
74511;DHT22;62991;50.040;18.400;2023-10-08T01:56:40;17.20;64.60
74511;DHT22;62991;50.040;18.400;2023-10-08T01:59:44;17.10;64.90
74511;DHT22;62991;50.040;18.400;2023-10-08T02:02:46;17.00;68.10
74511;DHT22;62991;50.040;18.400;2023-10-08T02:05:47;16.90;69.20
74511;DHT22;62991;50.040;18.400;2023-10-08T02:08:48;16.80;70.20
74511;DHT22;62991;50.040;18.400;2023-10-08T02:11:49;16.70;71.00
74511;DHT22;62991;50.040;18.400;2023-10-08T02:14:53;16.50;72.40
74511;DHT22;62991;50.040;18.400;2023-10-08T02:17:54;16.40;73.50
74511;DHT22;62991;50.040;18.400;2023-10-08T02:20:55;16.40;73.40
74511;DHT22;62991;50.040;18.400;2023-10-08T02:23:56;16.30;74.50
74511;DHT22;62991;50.040;18.400;2023-10-08T02:26:57;16.20;75.20
74511;DHT22;62991;50.040;18.400;2023-10-08T02:29:58;16.10;76.30
74511;DHT22;62991;50.040;18.400;2023-10-08T02:32:58;15.90;77.10
74511;DHT22;62991;50.040;18.400;2023-10-08T02:35:59;15.90;77.90
74511;DHT22;62991;50.040;18.400;2023-10-08T02:39:02;16.00;77.90
74511;DHT22;62991;50.040;18.400;2023-10-08T02:42:06;15.80;77.40
74511;DHT22;62991;50.040;18.400;2023-10-08T02:45:11;15.60;75.10
74511;DHT22;62991;50.040;18.400;2023-10-08T02:48:14;15.10;72.80
74511;DHT22;62991;50.040;18.400;2023-10-08T02:51:16;14.70;72.30
74511;DHT22;62991;50.040;18.400;2023-10-08T02:54:18;14.50;72.10
74511;DHT22;62991;50.040;18.400;2023-10-08T02:57:19;14.40;71.40
74511;DHT22;62991;50.040;18.400;2023-10-08T03:00:22;14.20;71.60
74511;DHT22;62991;50.040;18.400;2023-10-08T03:03:29;13.90;72.50
74511;DHT22;62991;50.040;18.400;2023-10-08T03:06:32;13.60;73.30
74511;DHT22;62991;50.040;18.400;2023-10-08T03:09:33;13.30;73.70
74511;DHT22;62991;50.040;18.400;2023-10-08T03:12:34;13.10;74.50
74511;DHT22;62991;50.040;18.400;2023-10-08T03:15:35;12.90;75.20
74511;DHT22;62991;50.040;18.400;2023-10-08T03:19:05;12.70;76.70
74511;DHT22;62991;50.040;18.400;2023-10-08T03:22:06;12.60;77.10
74511;DHT22;62991;50.040;18.400;2023-10-08T03:25:07;12.50;77.00
74511;DHT22;62991;50.040;18.400;2023-10-08T03:28:15;12.50;77.00
74511;DHT22;62991;50.040;18.400;2023-10-08T03:31:16;12.40;77.30
74511;DHT22;62991;50.040;18.400;2023-10-08T03:34:18;12.40;77.00
74511;DHT22;62991;50.040;18.400;2023-10-08T03:37:21;12.20;77.30
74511;DHT22;62991;50.040;18.400;2023-10-08T03:40:29;12.00;78.50
74511;DHT22;62991;50.040;18.400;2023-10-08T03:43:43;11.90;78.80
74511;DHT22;62991;50.040;18.400;2023-10-08T03:46:53;11.90;79.20
74511;DHT22;62991;50.040;18.400;2023-10-08T03:49:57;12.10;78.90
74511;DHT22;62991;50.040;18.400;2023-10-08T03:53:06;12.00;78.00
74511;DHT22;62991;50.040;18.400;2023-10-08T03:56:12;11.80;78.90
74511;DHT22;62991;50.040;18.400;2023-10-08T03:59:15;11.90;79.00
74511;DHT22;62991;50.040;18.400;2023-10-08T04:02:30;12.00;78.90
74511;DHT22;62991;50.040;18.400;2023-10-08T04:05:40;11.90;79.00
74511;DHT22;62991;50.040;18.400;2023-10-08T04:08:50;11.80;79.10
74511;DHT22;62991;50.040;18.400;2023-10-08T04:12:09;11.50;79.80
74511;DHT22;62991;50.040;18.400;2023-10-08T04:15:12;11.60;79.30
74511;DHT22;62991;50.040;18.400;2023-10-08T04:18:16;11.60;79.90
74511;DHT22;62991;50.040;18.400;2023-10-08T04:21:22;11.70;78.80
74511;DHT22;62991;50.040;18.400;2023-10-08T04:24:24;11.60;79.20
74511;DHT22;62991;50.040;18.400;2023-10-08T04:27:28;11.40;78.80
74511;DHT22;62991;50.040;18.400;2023-10-08T04:30:34;11.30;79.60
74511;DHT22;62991;50.040;18.400;2023-10-08T04:33:35;11.10;79.70
74511;DHT22;62991;50.040;18.400;2023-10-08T04:36:36;10.90;79.50
74511;DHT22;62991;50.040;18.400;2023-10-08T04:39:40;10.80;80.40
74511;DHT22;62991;50.040;18.400;2023-10-08T04:42:47;10.80;80.40
74511;DHT22;62991;50.040;18.400;2023-10-08T04:45:48;10.80;79.70
74511;DHT22;62991;50.040;18.400;2023-10-08T04:48:50;10.90;79.90
74511;DHT22;62991;50.040;18.400;2023-10-08T04:52:01;10.70;80.30
74511;DHT22;62991;50.040;18.400;2023-10-08T04:55:05;10.60;79.60
74511;DHT22;62991;50.040;18.400;2023-10-08T04:58:15;10.70;79.60
74511;DHT22;62991;50.040;18.400;2023-10-08T05:01:21;10.60;79.10
74511;DHT22;62991;50.040;18.400;2023-10-08T05:04:29;10.60;79.70
74511;DHT22;62991;50.040;18.400;2023-10-08T05:07:46;10.70;79.70
74511;DHT22;62991;50.040;18.400;2023-10-08T05:10:47;10.90;78.80
74511;DHT22;62991;50.040;18.400;2023-10-08T05:14:01;10.90;78.80
74511;DHT22;62991;50.040;18.400;2023-10-08T05:17:08;10.80;78.30
74511;DHT22;62991;50.040;18.400;2023-10-08T05:20:22;10.80;78.90
74511;DHT22;62991;50.040;18.400;2023-10-08T05:23:42;10.90;78.40
74511;DHT22;62991;50.040;18.400;2023-10-08T05:27:08;11.00;77.40
74511;DHT22;62991;50.040;18.400;2023-10-08T05:30:47;10.80;77.20
74511;DHT22;62991;50.040;18.400;2023-10-08T05:34:09;10.70;78.00
74511;DHT22;62991;50.040;18.400;2023-10-08T05:37:18;10.80;77.60
74511;DHT22;62991;50.040;18.400;2023-10-08T05:40:45;10.60;78.20
74511;DHT22;62991;50.040;18.400;2023-10-08T05:44:01;10.50;78.40
74511;DHT22;62991;50.040;18.400;2023-10-08T05:47:19;10.50;78.60
74511;DHT22;62991;50.040;18.400;2023-10-08T05:50:32;10.50;79.20
74511;DHT22;62991;50.040;18.400;2023-10-08T05:53:55;10.40;78.80
74511;DHT22;62991;50.040;18.400;2023-10-08T05:57:08;10.30;79.00
74511;DHT22;62991;50.040;18.400;2023-10-08T06:00:12;10.50;79.40
74511;DHT22;62991;50.040;18.400;2023-10-08T06:03:17;10.50;78.80
74511;DHT22;62991;50.040;18.400;2023-10-08T06:06:33;10.40;79.10
74511;DHT22;62991;50.040;18.400;2023-10-08T06:09:38;10.40;79.80
74511;DHT22;62991;50.040;18.400;2023-10-08T06:12:40;10.70;78.80
74511;DHT22;62991;50.040;18.400;2023-10-08T06:15:51;10.60;78.50
74511;DHT22;62991;50.040;18.400;2023-10-08T06:19:06;10.70;78.70
74511;DHT22;62991;50.040;18.400;2023-10-08T06:22:06;10.70;77.80
74511;DHT22;62991;50.040;18.400;2023-10-08T06:25:07;10.60;78.50
74511;DHT22;62991;50.040;18.400;2023-10-08T06:28:18;10.60;78.40
74511;DHT22;62991;50.040;18.400;2023-10-08T06:31:20;10.60;78.40
74511;DHT22;62991;50.040;18.400;2023-10-08T06:34:25;10.80;78.30
74511;DHT22;62991;50.040;18.400;2023-10-08T06:37:28;10.90;77.40
74511;DHT22;62991;50.040;18.400;2023-10-08T06:40:29;11.00;76.50
74511;DHT22;62991;50.040;18.400;2023-10-08T06:43:49;10.80;76.90
74511;DHT22;62991;50.040;18.400;2023-10-08T06:46:50;10.50;76.70
74511;DHT22;62991;50.040;18.400;2023-10-08T06:49:54;10.60;76.90
74511;DHT22;62991;50.040;18.400;2023-10-08T06:52:55;10.60;77.00
74511;DHT22;62991;50.040;18.400;2023-10-08T06:55:55;10.60;76.70
74511;DHT22;62991;50.040;18.400;2023-10-08T06:59:04;10.50;76.90
74511;DHT22;62991;50.040;18.400;2023-10-08T07:02:05;10.70;77.00
74511;DHT22;62991;50.040;18.400;2023-10-08T07:05:08;10.70;76.90
74511;DHT22;62991;50.040;18.400;2023-10-08T07:08:11;10.80;77.20
74511;DHT22;62991;50.040;18.400;2023-10-08T07:11:15;10.90;77.10
74511;DHT22;62991;50.040;18.400;2023-10-08T07:14:18;11.00;76.50
74511;DHT22;62991;50.040;18.400;2023-10-08T07:17:19;10.90;75.80
74511;DHT22;62991;50.040;18.400;2023-10-08T07:20:20;10.90;75.50
74511;DHT22;62991;50.040;18.400;2023-10-08T07:23:23;11.00;75.00
74511;DHT22;62991;50.040;18.400;2023-10-08T07:26:29;11.00;74.60
74511;DHT22;62991;50.040;18.400;2023-10-08T07:29:47;10.90;75.80
74511;DHT22;62991;50.040;18.400;2023-10-08T07:32:48;11.10;75.40
74511;DHT22;62991;50.040;18.400;2023-10-08T07:35:48;11.10;74.60
74511;DHT22;62991;50.040;18.400;2023-10-08T07:38:57;11.00;74.90
74511;DHT22;62991;50.040;18.400;2023-10-08T07:42:02;10.90;74.10
74511;DHT22;62991;50.040;18.400;2023-10-08T07:45:06;11.10;73.70
74511;DHT22;62991;50.040;18.400;2023-10-08T07:48:07;11.20;73.30
74511;DHT22;62991;50.040;18.400;2023-10-08T07:51:10;11.30;72.70
74511;DHT22;62991;50.040;18.400;2023-10-08T07:54:10;11.30;73.30
74511;DHT22;62991;50.040;18.400;2023-10-08T07:57:16;11.10;73.30
74511;DHT22;62991;50.040;18.400;2023-10-08T08:00:26;11.00;74.10
74511;DHT22;62991;50.040;18.400;2023-10-08T08:03:31;11.00;74.20
74511;DHT22;62991;50.040;18.400;2023-10-08T08:06:32;10.90;74.90
74511;DHT22;62991;50.040;18.400;2023-10-08T08:09:34;10.80;75.10
74511;DHT22;62991;50.040;18.400;2023-10-08T08:12:38;10.90;74.60
74511;DHT22;62991;50.040;18.400;2023-10-08T08:15:39;11.20;74.70
74511;DHT22;62991;50.040;18.400;2023-10-08T08:18:48;11.40;73.60
74511;DHT22;62991;50.040;18.400;2023-10-08T08:21:59;11.50;73.80
74511;DHT22;62991;50.040;18.400;2023-10-08T08:25:03;11.50;73.10
74511;DHT22;62991;50.040;18.400;2023-10-08T08:28:15;11.70;73.00
74511;DHT22;62991;50.040;18.400;2023-10-08T08:31:21;12.10;72.30
74511;DHT22;62991;50.040;18.400;2023-10-08T08:34:22;12.20;71.00
74511;DHT22;62991;50.040;18.400;2023-10-08T08:37:24;12.10;70.90
74511;DHT22;62991;50.040;18.400;2023-10-08T08:40:29;12.20;70.30
74511;DHT22;62991;50.040;18.400;2023-10-08T08:43:31;12.10;71.00
74511;DHT22;62991;50.040;18.400;2023-10-08T08:46:35;12.00;69.70
74511;DHT22;62991;50.040;18.400;2023-10-08T08:49:36;11.90;69.70
74511;DHT22;62991;50.040;18.400;2023-10-08T08:52:39;11.90;69.80
74511;DHT22;62991;50.040;18.400;2023-10-08T08:55:40;12.10;69.30
74511;DHT22;62991;50.040;18.400;2023-10-08T08:58:44;12.60;69.30
74511;DHT22;62991;50.040;18.400;2023-10-08T09:01:46;13.10;68.10
74511;DHT22;62991;50.040;18.400;2023-10-08T09:04:48;13.00;67.70
74511;DHT22;62991;50.040;18.400;2023-10-08T09:10:58;13.60;65.60
74511;DHT22;62991;50.040;18.400;2023-10-08T09:14:02;13.30;64.00
74511;DHT22;62991;50.040;18.400;2023-10-08T09:17:03;13.40;65.20
74511;DHT22;62991;50.040;18.400;2023-10-08T09:20:06;13.50;63.80
74511;DHT22;62991;50.040;18.400;2023-10-08T09:23:09;13.30;64.70
74511;DHT22;62991;50.040;18.400;2023-10-08T09:26:12;13.40;65.60
74511;DHT22;62991;50.040;18.400;2023-10-08T09:29:14;13.40;64.10
74511;DHT22;62991;50.040;18.400;2023-10-08T09:32:15;13.30;64.50
74511;DHT22;62991;50.040;18.400;2023-10-08T09:35:34;13.40;64.10
74511;DHT22;62991;50.040;18.400;2023-10-08T09:38:35;13.50;61.90
74511;DHT22;62991;50.040;18.400;2023-10-08T09:41:38;13.10;61.90
74511;DHT22;62991;50.040;18.400;2023-10-08T09:44:40;13.30;62.70
74511;DHT22;62991;50.040;18.400;2023-10-08T09:47:53;13.30;60.70
74511;DHT22;62991;50.040;18.400;2023-10-08T09:50:55;13.30;61.80
74511;DHT22;62991;50.040;18.400;2023-10-08T09:54:11;13.10;60.00
74511;DHT22;62991;50.040;18.400;2023-10-08T09:57:15;12.80;61.10
74511;DHT22;62991;50.040;18.400;2023-10-08T10:00:19;12.80;62.20
74511;DHT22;62991;50.040;18.400;2023-10-08T10:03:31;13.10;62.70
74511;DHT22;62991;50.040;18.400;2023-10-08T10:06:34;13.50;61.00
74511;DHT22;62991;50.040;18.400;2023-10-08T10:09:36;13.90;61.10
74511;DHT22;62991;50.040;18.400;2023-10-08T10:12:37;14.30;57.50
74511;DHT22;62991;50.040;18.400;2023-10-08T10:15:41;14.10;56.50
74511;DHT22;62991;50.040;18.400;2023-10-08T10:18:44;14.50;56.00
74511;DHT22;62991;50.040;18.400;2023-10-08T10:21:47;15.00;56.50
74511;DHT22;62991;50.040;18.400;2023-10-08T10:24:48;15.50;53.50
74511;DHT22;62991;50.040;18.400;2023-10-08T10:30:56;14.80;52.70
74511;DHT22;62991;50.040;18.400;2023-10-08T10:33:58;15.10;52.80
74511;DHT22;62991;50.040;18.400;2023-10-08T10:37:01;15.70;53.10
74511;DHT22;62991;50.040;18.400;2023-10-08T10:40:21;15.40;50.80
74511;DHT22;62991;50.040;18.400;2023-10-08T10:43:43;15.00;51.00
74511;DHT22;62991;50.040;18.400;2023-10-08T10:46:53;14.70;49.30
74511;DHT22;62991;50.040;18.400;2023-10-08T10:50:13;14.40;47.70
74511;DHT22;62991;50.040;18.400;2023-10-08T10:53:27;14.60;48.50
74511;DHT22;62991;50.040;18.400;2023-10-08T10:56:28;14.70;48.60
74511;DHT22;62991;50.040;18.400;2023-10-08T10:59:32;14.60;49.70
74511;DHT22;62991;50.040;18.400;2023-10-08T11:02:39;14.90;46.90
74511;DHT22;62991;50.040;18.400;2023-10-08T11:05:46;14.80;45.00
74511;DHT22;62991;50.040;18.400;2023-10-08T11:08:52;14.80;45.30
74511;DHT22;62991;50.040;18.400;2023-10-08T11:11:53;14.70;42.60
74511;DHT22;62991;50.040;18.400;2023-10-08T11:14:55;15.00;43.40
74511;DHT22;62991;50.040;18.400;2023-10-08T11:17:57;15.40;43.30
74511;DHT22;62991;50.040;18.400;2023-10-08T11:21:08;15.20;41.60
74511;DHT22;62991;50.040;18.400;2023-10-08T11:24:28;14.70;41.50
74511;DHT22;62991;50.040;18.400;2023-10-08T11:27:29;14.60;42.40
74511;DHT22;62991;50.040;18.400;2023-10-08T11:30:31;14.80;42.50
74511;DHT22;62991;50.040;18.400;2023-10-08T11:33:34;14.60;41.90
74511;DHT22;62991;50.040;18.400;2023-10-08T11:36:37;14.70;41.20
74511;DHT22;62991;50.040;18.400;2023-10-08T11:39:49;14.70;41.40
74511;DHT22;62991;50.040;18.400;2023-10-08T11:42:51;15.00;42.70
74511;DHT22;62991;50.040;18.400;2023-10-08T11:45:52;15.10;42.10
74511;DHT22;62991;50.040;18.400;2023-10-08T11:48:56;14.90;41.50
74511;DHT22;62991;50.040;18.400;2023-10-08T11:51:58;15.20;41.30
74511;DHT22;62991;50.040;18.400;2023-10-08T11:55:01;15.50;40.00
74511;DHT22;62991;50.040;18.400;2023-10-08T11:58:06;15.40;39.40
74511;DHT22;62991;50.040;18.400;2023-10-08T12:01:17;15.80;39.00
74511;DHT22;62991;50.040;18.400;2023-10-08T12:04:18;16.20;38.10
74511;DHT22;62991;50.040;18.400;2023-10-08T12:07:23;16.70;39.20
74511;DHT22;62991;50.040;18.400;2023-10-08T12:10:28;19.70;34.80
74511;DHT22;62991;50.040;18.400;2023-10-08T12:13:31;27.10;27.30
74511;DHT22;62991;50.040;18.400;2023-10-08T12:16:33;31.60;24.50
74511;DHT22;62991;50.040;18.400;2023-10-08T12:19:37;34.50;23.10
74511;DHT22;62991;50.040;18.400;2023-10-08T12:22:40;37.60;20.70
74511;DHT22;62991;50.040;18.400;2023-10-08T12:25:41;38.00;20.10
74511;DHT22;62991;50.040;18.400;2023-10-08T12:28:51;38.70;19.80
74511;DHT22;62991;50.040;18.400;2023-10-08T12:31:54;39.00;20.00
74511;DHT22;62991;50.040;18.400;2023-10-08T12:34:54;40.50;19.40
74511;DHT22;62991;50.040;18.400;2023-10-08T12:37:56;42.60;18.50
74511;DHT22;62991;50.040;18.400;2023-10-08T12:40:57;42.90;18.10
74511;DHT22;62991;50.040;18.400;2023-10-08T12:43:59;44.40;18.10
74511;DHT22;62991;50.040;18.400;2023-10-08T12:47:00;45.00;17.60
74511;DHT22;62991;50.040;18.400;2023-10-08T12:50:06;46.30;17.50
74511;DHT22;62991;50.040;18.400;2023-10-08T12:53:09;45.30;17.30
74511;DHT22;62991;50.040;18.400;2023-10-08T12:56:11;46.80;17.10
74511;DHT22;62991;50.040;18.400;2023-10-08T12:59:15;46.60;16.80
74511;DHT22;62991;50.040;18.400;2023-10-08T13:02:25;47.80;16.20
74511;DHT22;62991;50.040;18.400;2023-10-08T13:05:28;48.30;16.20
74511;DHT22;62991;50.040;18.400;2023-10-08T13:08:32;47.10;16.10
74511;DHT22;62991;50.040;18.400;2023-10-08T13:11:34;45.00;16.60
74511;DHT22;62991;50.040;18.400;2023-10-08T13:14:35;46.10;16.20
74511;DHT22;62991;50.040;18.400;2023-10-08T13:17:35;47.10;16.20
74511;DHT22;62991;50.040;18.400;2023-10-08T13:20:36;45.90;16.20
74511;DHT22;62991;50.040;18.400;2023-10-08T13:23:37;45.20;16.40
74511;DHT22;62991;50.040;18.400;2023-10-08T13:26:38;45.10;16.50
74511;DHT22;62991;50.040;18.400;2023-10-08T13:29:39;44.20;16.70
74511;DHT22;62991;50.040;18.400;2023-10-08T13:32:39;43.20;16.70
74511;DHT22;62991;50.040;18.400;2023-10-08T13:35:40;44.80;16.60
74511;DHT22;62991;50.040;18.400;2023-10-08T13:38:42;44.50;16.40
74511;DHT22;62991;50.040;18.400;2023-10-08T13:41:44;44.40;16.40
74511;DHT22;62991;50.040;18.400;2023-10-08T13:44:48;41.70;16.80
74511;DHT22;62991;50.040;18.400;2023-10-08T13:47:49;40.20;17.20
74511;DHT22;62991;50.040;18.400;2023-10-08T13:50:49;40.10;17.50
74511;DHT22;62991;50.040;18.400;2023-10-08T13:53:51;41.50;17.40
74511;DHT22;62991;50.040;18.400;2023-10-08T13:56:52;42.20;17.10
74511;DHT22;62991;50.040;18.400;2023-10-08T13:59:53;43.50;17.00
74511;DHT22;62991;50.040;18.400;2023-10-08T14:02:54;42.60;17.10
74511;DHT22;62991;50.040;18.400;2023-10-08T14:05:55;41.70;17.00
74511;DHT22;62991;50.040;18.400;2023-10-08T14:08:59;41.00;16.90
74511;DHT22;62991;50.040;18.400;2023-10-08T14:12:01;40.50;17.60
74511;DHT22;62991;50.040;18.400;2023-10-08T14:15:02;41.20;17.50
74511;DHT22;62991;50.040;18.400;2023-10-08T14:18:07;41.60;17.40
74511;DHT22;62991;50.040;18.400;2023-10-08T14:21:09;41.00;17.50
74511;DHT22;62991;50.040;18.400;2023-10-08T14:24:10;39.50;18.00
74511;DHT22;62991;50.040;18.400;2023-10-08T14:27:15;37.80;18.50
74511;DHT22;62991;50.040;18.400;2023-10-08T14:30:16;36.90;18.90
74511;DHT22;62991;50.040;18.400;2023-10-08T14:33:21;36.90;18.70
74511;DHT22;62991;50.040;18.400;2023-10-08T14:36:27;35.80;19.60
74511;DHT22;62991;50.040;18.400;2023-10-08T14:39:46;34.90;19.70
74511;DHT22;62991;50.040;18.400;2023-10-08T14:43:05;33.20;20.70
74511;DHT22;62991;50.040;18.400;2023-10-08T14:46:06;32.10;20.50
74511;DHT22;62991;50.040;18.400;2023-10-08T14:49:09;30.90;21.20
74511;DHT22;62991;50.040;18.400;2023-10-08T14:52:11;30.00;21.60
74511;DHT22;62991;50.040;18.400;2023-10-08T14:55:12;29.10;22.50
74511;DHT22;62991;50.040;18.400;2023-10-08T14:58:16;27.50;23.10
74511;DHT22;62991;50.040;18.400;2023-10-08T15:01:18;26.50;23.90
74511;DHT22;62991;50.040;18.400;2023-10-08T15:04:20;24.00;25.70
74511;DHT22;62991;50.040;18.400;2023-10-08T15:07:21;23.10;26.90
74511;DHT22;62991;50.040;18.400;2023-10-08T15:10:23;20.30;29.40
74511;DHT22;62991;50.040;18.400;2023-10-08T15:13:24;18.90;31.00
74511;DHT22;62991;50.040;18.400;2023-10-08T15:16:25;18.80;31.60
74511;DHT22;62991;50.040;18.400;2023-10-08T15:19:27;19.00;31.80
74511;DHT22;62991;50.040;18.400;2023-10-08T15:22:28;19.40;31.60
74511;DHT22;62991;50.040;18.400;2023-10-08T15:25:28;19.00;32.10
74511;DHT22;62991;50.040;18.400;2023-10-08T15:28:29;18.40;33.20
74511;DHT22;62991;50.040;18.400;2023-10-08T15:31:30;18.50;33.50
74511;DHT22;62991;50.040;18.400;2023-10-08T15:34:31;18.50;33.60
74511;DHT22;62991;50.040;18.400;2023-10-08T15:37:33;18.00;34.50
74511;DHT22;62991;50.040;18.400;2023-10-08T15:40:33;17.40;35.50
74511;DHT22;62991;50.040;18.400;2023-10-08T15:43:34;17.50;35.70
74511;DHT22;62991;50.040;18.400;2023-10-08T15:46:35;17.60;35.30
74511;DHT22;62991;50.040;18.400;2023-10-08T15:49:36;17.80;34.90
74511;DHT22;62991;50.040;18.400;2023-10-08T15:52:37;17.20;35.50
74511;DHT22;62991;50.040;18.400;2023-10-08T15:55:38;16.90;36.30
74511;DHT22;62991;50.040;18.400;2023-10-08T15:58:39;16.50;37.90
74511;DHT22;62991;50.040;18.400;2023-10-08T16:01:41;16.10;37.50
74511;DHT22;62991;50.040;18.400;2023-10-08T16:04:46;15.80;38.60
74511;DHT22;62991;50.040;18.400;2023-10-08T16:07:47;15.70;39.60
74511;DHT22;62991;50.040;18.400;2023-10-08T16:10:49;15.50;39.60
74511;DHT22;62991;50.040;18.400;2023-10-08T16:13:49;15.20;40.80
74511;DHT22;62991;50.040;18.400;2023-10-08T16:16:51;15.00;42.40
74511;DHT22;62991;50.040;18.400;2023-10-08T16:19:51;14.90;41.90
74511;DHT22;62991;50.040;18.400;2023-10-08T16:22:52;14.40;42.00
74511;DHT22;62991;50.040;18.400;2023-10-08T16:25:53;14.30;42.40
74511;DHT22;62991;50.040;18.400;2023-10-08T16:28:54;14.30;42.70
74511;DHT22;62991;50.040;18.400;2023-10-08T16:31:54;14.10;42.60
74511;DHT22;62991;50.040;18.400;2023-10-08T16:34:55;14.00;42.40
74511;DHT22;62991;50.040;18.400;2023-10-08T16:37:56;13.90;42.40
74511;DHT22;62991;50.040;18.400;2023-10-08T16:40:57;13.90;42.90
74511;DHT22;62991;50.040;18.400;2023-10-08T16:43:58;13.70;43.40
74511;DHT22;62991;50.040;18.400;2023-10-08T16:46:59;13.60;44.10
74511;DHT22;62991;50.040;18.400;2023-10-08T16:50:00;13.50;44.70
74511;DHT22;62991;50.040;18.400;2023-10-08T16:53:01;13.50;45.10
74511;DHT22;62991;50.040;18.400;2023-10-08T16:56:01;13.40;44.10
74511;DHT22;62991;50.040;18.400;2023-10-08T16:59:02;13.30;45.10
74511;DHT22;62991;50.040;18.400;2023-10-08T17:02:05;13.20;44.80
74511;DHT22;62991;50.040;18.400;2023-10-08T17:05:06;13.10;45.40
74511;DHT22;62991;50.040;18.400;2023-10-08T17:08:08;13.20;46.00
74511;DHT22;62991;50.040;18.400;2023-10-08T17:11:09;13.20;45.70
74511;DHT22;62991;50.040;18.400;2023-10-08T17:14:12;13.30;46.00
74511;DHT22;62991;50.040;18.400;2023-10-08T17:17:13;13.20;45.40
74511;DHT22;62991;50.040;18.400;2023-10-08T17:20:14;13.20;45.50
74511;DHT22;62991;50.040;18.400;2023-10-08T17:23:17;13.10;45.80
74511;DHT22;62991;50.040;18.400;2023-10-08T17:26:18;13.10;45.20
74511;DHT22;62991;50.040;18.400;2023-10-08T17:29:19;13.00;46.20
74511;DHT22;62991;50.040;18.400;2023-10-08T17:32:19;12.90;47.30
74511;DHT22;62991;50.040;18.400;2023-10-08T17:35:22;12.90;48.00
74511;DHT22;62991;50.040;18.400;2023-10-08T17:38:22;12.80;48.00
74511;DHT22;62991;50.040;18.400;2023-10-08T17:41:23;12.80;48.00
74511;DHT22;62991;50.040;18.400;2023-10-08T17:44:24;12.70;48.20
74511;DHT22;62991;50.040;18.400;2023-10-08T17:47:27;12.70;47.70
74511;DHT22;62991;50.040;18.400;2023-10-08T17:50:29;12.70;46.60
74511;DHT22;62991;50.040;18.400;2023-10-08T17:53:30;12.60;47.10
74511;DHT22;62991;50.040;18.400;2023-10-08T17:56:32;12.60;47.80
74511;DHT22;62991;50.040;18.400;2023-10-08T17:59:32;12.50;47.90
74511;DHT22;62991;50.040;18.400;2023-10-08T18:02:33;12.50;48.00
74511;DHT22;62991;50.040;18.400;2023-10-08T18:05:35;12.50;48.00
74511;DHT22;62991;50.040;18.400;2023-10-08T18:08:37;12.40;48.50
74511;DHT22;62991;50.040;18.400;2023-10-08T18:11:38;12.40;48.30
74511;DHT22;62991;50.040;18.400;2023-10-08T18:14:46;12.30;48.30
74511;DHT22;62991;50.040;18.400;2023-10-08T18:17:49;12.30;48.20
74511;DHT22;62991;50.040;18.400;2023-10-08T18:20:51;12.20;48.20
74511;DHT22;62991;50.040;18.400;2023-10-08T18:23:54;12.20;48.60
74511;DHT22;62991;50.040;18.400;2023-10-08T18:26:56;12.20;49.00
74511;DHT22;62991;50.040;18.400;2023-10-08T18:29:57;12.10;48.80
74511;DHT22;62991;50.040;18.400;2023-10-08T18:32:57;12.00;49.30
74511;DHT22;62991;50.040;18.400;2023-10-08T18:36:06;12.00;49.40
74511;DHT22;62991;50.040;18.400;2023-10-08T18:39:07;11.90;49.30
74511;DHT22;62991;50.040;18.400;2023-10-08T18:42:16;12.00;49.10
74511;DHT22;62991;50.040;18.400;2023-10-08T18:45:17;11.90;49.20
74511;DHT22;62991;50.040;18.400;2023-10-08T18:48:18;11.90;49.20
74511;DHT22;62991;50.040;18.400;2023-10-08T18:51:19;11.80;49.70
74511;DHT22;62991;50.040;18.400;2023-10-08T18:54:21;11.80;50.40
74511;DHT22;62991;50.040;18.400;2023-10-08T18:57:22;11.80;50.70
74511;DHT22;62991;50.040;18.400;2023-10-08T19:00:22;11.70;50.50
74511;DHT22;62991;50.040;18.400;2023-10-08T19:03:27;11.70;51.00
74511;DHT22;62991;50.040;18.400;2023-10-08T19:06:27;11.70;51.00
74511;DHT22;62991;50.040;18.400;2023-10-08T19:09:30;11.60;51.20